createdAt,value
2018-03-01T00:00:04.589Z,-8.68
2018-03-01T00:01:04.496Z,-8.62
2018-03-01T00:02:04.403Z,-8.67
2018-03-01T00:03:04.311Z,-8.65
2018-03-01T00:04:04.216Z,-8.64
2018-03-01T00:05:04.127Z,-8.65
2018-03-01T00:06:04.028Z,-8.64
2018-03-01T00:07:03.937Z,-8.61
2018-03-01T00:08:03.843Z,-8.65
2018-03-01T00:09:03.750Z,-8.60
2018-03-01T00:10:03.657Z,-8.57
2018-03-01T00:11:03.565Z,-8.65
2018-03-01T00:12:03.472Z,-8.68
2018-03-01T00:13:03.380Z,-8.76
2018-03-01T00:14:03.286Z,-8.78
2018-03-01T00:15:03.192Z,-8.73
2018-03-01T00:16:03.101Z,-8.78
2018-03-01T00:17:03.006Z,-8.76
2018-03-01T00:18:02.912Z,-8.73
2018-03-01T00:19:02.819Z,-8.79
2018-03-01T00:20:02.728Z,-8.79
2018-03-01T00:21:02.638Z,-8.82
2018-03-01T00:22:02.557Z,-8.85
2018-03-01T00:23:02.447Z,-8.82
2018-03-01T00:24:02.353Z,-8.81
2018-03-01T00:25:02.263Z,-8.85
2018-03-01T00:26:02.167Z,-8.78
2018-03-01T00:27:02.076Z,-8.79
2018-03-01T00:28:01.985Z,-8.83
2018-03-01T00:29:01.889Z,-8.81
2018-03-01T00:30:01.794Z,-8.81
2018-03-01T00:31:01.704Z,-8.79
2018-03-01T00:32:01.609Z,-8.78
2018-03-01T00:33:01.520Z,-8.76
2018-03-01T00:34:01.425Z,-8.76
2018-03-01T00:35:01.330Z,-8.78
2018-03-01T00:36:01.234Z,-8.76
2018-03-01T00:37:01.142Z,-8.76
2018-03-01T00:38:01.048Z,-8.78
2018-03-01T00:39:00.954Z,-8.82
2018-03-01T00:40:00.864Z,-8.81
2018-03-01T00:41:00.767Z,-8.82
2018-03-01T00:42:00.678Z,-8.83
2018-03-01T00:43:00.583Z,-8.83
2018-03-01T00:44:00.493Z,-8.81
2018-03-01T00:45:00.395Z,-8.86
2018-03-01T00:46:00.303Z,-8.85
2018-03-01T00:47:00.217Z,-8.78
2018-03-01T00:48:00.119Z,-8.83
2018-03-01T00:49:00.024Z,-8.81
2018-03-01T00:49:59.929Z,-8.85
2018-03-01T00:50:59.842Z,-8.83
2018-03-01T00:51:59.746Z,-8.83
2018-03-01T00:52:59.652Z,-8.76
2018-03-01T00:53:59.556Z,-8.81
2018-03-01T00:54:59.466Z,-8.79
2018-03-01T00:55:59.372Z,-8.76
2018-03-01T00:56:59.278Z,-8.79
2018-03-01T00:57:59.184Z,-8.81
2018-03-01T00:58:59.090Z,-8.83
2018-03-01T00:59:59.000Z,-8.92
2018-03-01T01:00:58.909Z,-8.93
2018-03-01T01:01:58.810Z,-8.93
2018-03-01T01:02:58.718Z,-8.82
2018-03-01T01:03:58.624Z,-8.86
2018-03-01T01:04:58.533Z,-8.97
2018-03-01T01:05:58.438Z,-8.90
2018-03-01T01:06:58.345Z,-8.97
2018-03-01T01:07:58.252Z,-8.94
2018-03-01T01:08:58.158Z,-9.02
2018-03-01T01:09:58.065Z,-8.90
2018-03-01T01:10:57.970Z,-8.94
2018-03-01T01:11:57.888Z,-8.93
2018-03-01T01:12:57.798Z,-8.86
2018-03-01T01:13:57.689Z,-8.93
2018-03-01T01:14:57.600Z,-8.97
2018-03-01T01:15:57.507Z,-8.94
2018-03-01T01:16:57.410Z,-8.99
2018-03-01T01:17:57.317Z,-8.99
2018-03-01T01:18:57.224Z,-8.99
2018-03-01T01:19:57.134Z,-8.85
2018-03-01T01:20:57.040Z,-8.83
2018-03-01T01:21:56.945Z,-8.99
2018-03-01T01:22:56.850Z,-8.99
2018-03-01T01:23:56.757Z,-8.99
2018-03-01T01:24:56.664Z,-8.85
2018-03-01T01:25:56.570Z,-8.97
2018-03-01T01:26:56.476Z,-8.92
2018-03-01T01:27:56.383Z,-8.88
2018-03-01T01:28:56.289Z,-8.83
2018-03-01T01:29:56.196Z,-8.81
2018-03-01T01:30:56.106Z,-8.99
2018-03-01T01:31:56.010Z,-8.82
2018-03-01T01:32:55.918Z,-8.97
2018-03-01T01:33:55.822Z,-8.90
2018-03-01T01:34:55.729Z,-8.94
2018-03-01T01:35:55.638Z,-8.83
2018-03-01T01:36:55.554Z,-8.82
2018-03-01T01:37:55.450Z,-8.83
2018-03-01T01:38:55.356Z,-8.92
2018-03-01T01:39:55.265Z,-8.88
2018-03-01T01:40:55.170Z,-8.82
2018-03-01T01:41:55.076Z,-8.85
2018-03-01T01:42:54.985Z,-8.86
2018-03-01T01:43:54.891Z,-8.83
2018-03-01T01:44:54.798Z,-8.81
2018-03-01T01:45:54.707Z,-8.83
2018-03-01T01:46:54.608Z,-8.93
2018-03-01T01:47:54.519Z,-8.81
2018-03-01T01:48:54.422Z,-8.83
2018-03-01T01:49:54.329Z,-8.99
2018-03-01T01:50:54.245Z,-9.00
2018-03-01T01:51:54.143Z,-8.96
2018-03-01T01:52:54.050Z,-8.94
2018-03-01T01:53:53.961Z,-8.96
2018-03-01T01:54:53.865Z,-8.99
2018-03-01T01:55:53.771Z,-8.92
2018-03-01T01:56:53.676Z,-8.90
2018-03-01T01:57:53.582Z,-8.97
2018-03-01T01:58:53.488Z,-8.99
2018-03-01T01:59:53.396Z,-8.97
2018-03-01T02:00:53.303Z,-8.88
2018-03-01T02:01:53.212Z,-8.82
2018-03-01T02:02:53.117Z,-8.86
2018-03-01T02:03:53.024Z,-8.82
2018-03-01T02:04:52.928Z,-8.79
2018-03-01T02:05:52.838Z,-8.88
2018-03-01T02:06:52.744Z,-8.76
2018-03-01T02:07:52.666Z,-8.76
2018-03-01T02:08:52.577Z,-8.73
2018-03-01T02:09:52.463Z,-8.76
2018-03-01T02:10:52.371Z,-8.86
2018-03-01T02:11:52.286Z,-8.83
2018-03-01T02:12:52.187Z,-8.81
2018-03-01T02:13:52.090Z,-8.88
2018-03-01T02:14:51.998Z,-8.81
2018-03-01T02:15:51.905Z,-8.82
2018-03-01T02:16:51.812Z,-8.93
2018-03-01T02:17:51.718Z,-8.92
2018-03-01T02:18:51.623Z,-8.92
2018-03-01T02:19:51.532Z,-8.90
2018-03-01T02:20:51.439Z,-8.88
2018-03-01T02:21:51.350Z,-8.94
2018-03-01T02:22:51.249Z,-8.92
2018-03-01T02:23:51.158Z,-8.97
2018-03-01T02:24:51.066Z,-8.86
2018-03-01T02:25:50.970Z,-8.83
2018-03-01T02:26:50.878Z,-8.86
2018-03-01T02:27:50.782Z,-8.86
2018-03-01T02:28:50.696Z,-8.83
2018-03-01T02:29:50.597Z,-8.90
2018-03-01T02:30:50.504Z,-8.81
2018-03-01T02:31:50.413Z,-8.88
2018-03-01T02:32:50.323Z,-8.85
2018-03-01T02:33:50.230Z,-8.81
2018-03-01T02:34:50.133Z,-8.81
2018-03-01T02:35:50.037Z,-8.92
2018-03-01T02:36:49.945Z,-8.86
2018-03-01T02:37:49.851Z,-8.92
2018-03-01T02:38:49.756Z,-8.93
2018-03-01T02:39:49.665Z,-8.88
2018-03-01T02:40:49.575Z,-8.94
2018-03-01T02:41:49.481Z,-8.94
2018-03-01T02:42:49.411Z,-8.86
2018-03-01T02:43:49.292Z,-8.90
2018-03-01T02:44:49.217Z,-8.88
2018-03-01T02:45:49.106Z,-8.92
2018-03-01T02:46:49.011Z,-8.94
2018-03-01T02:47:48.919Z,-8.90
2018-03-01T02:48:48.824Z,-8.96
2018-03-01T02:49:48.734Z,-9.00
2018-03-01T02:50:48.639Z,-9.07
2018-03-01T02:51:48.543Z,-9.00
2018-03-01T02:52:48.452Z,-8.96
2018-03-01T02:53:48.354Z,-8.96
2018-03-01T02:54:48.263Z,-8.90
2018-03-01T02:55:48.171Z,-8.93
2018-03-01T02:56:48.114Z,-8.97
2018-03-01T02:57:47.983Z,-9.03
2018-03-01T02:58:47.912Z,-8.96
2018-03-01T02:59:47.802Z,-9.06
2018-03-01T03:00:47.704Z,-9.07
2018-03-01T03:01:47.609Z,-8.97
2018-03-01T03:02:47.518Z,-8.93
2018-03-01T03:03:47.428Z,-8.93
2018-03-01T03:04:47.338Z,-8.92
2018-03-01T03:05:47.236Z,-8.96
2018-03-01T03:06:47.144Z,-8.93
2018-03-01T03:07:47.048Z,-8.88
2018-03-01T03:08:46.956Z,-8.85
2018-03-01T03:09:46.863Z,-8.92
2018-03-01T03:10:46.767Z,-8.96
2018-03-01T03:11:46.676Z,-8.93
2018-03-01T03:12:46.580Z,-9.04
2018-03-01T03:13:46.491Z,-9.04
2018-03-01T03:14:46.395Z,-9.07
2018-03-01T03:15:46.302Z,-9.07
2018-03-01T03:16:46.206Z,-9.07
2018-03-01T03:17:46.113Z,-8.99
2018-03-01T03:18:46.022Z,-9.04
2018-03-01T03:19:45.929Z,-8.97
2018-03-01T03:20:45.838Z,-8.94
2018-03-01T03:21:45.742Z,-8.96
2018-03-01T03:22:45.645Z,-8.93
2018-03-01T03:23:45.559Z,-8.93
2018-03-01T03:24:45.460Z,-9.00
2018-03-01T03:25:45.365Z,-8.96
2018-03-01T03:26:45.271Z,-8.94
2018-03-01T03:27:45.179Z,-8.96
2018-03-01T03:28:45.087Z,-8.93
2018-03-01T03:29:44.992Z,-8.94
2018-03-01T03:30:44.905Z,-8.90
2018-03-01T03:31:44.805Z,-8.99
2018-03-01T03:32:44.727Z,-8.93
2018-03-01T03:33:44.619Z,-8.93
2018-03-01T03:34:44.526Z,-8.93
2018-03-01T03:35:44.432Z,-8.99
2018-03-01T03:36:44.368Z,-8.88
2018-03-01T03:37:44.244Z,-8.99
2018-03-01T03:38:44.152Z,-8.94
2018-03-01T03:39:44.060Z,-8.96
2018-03-01T03:40:43.967Z,-8.93
2018-03-01T03:41:43.871Z,-8.93
2018-03-01T03:42:43.778Z,-8.99
2018-03-01T03:43:43.686Z,-8.96
2018-03-01T03:44:43.595Z,-8.88
2018-03-01T03:45:43.498Z,-8.94
2018-03-01T03:46:43.406Z,-8.99
2018-03-01T03:47:43.313Z,-8.96
2018-03-01T03:48:43.217Z,-8.93
2018-03-01T03:49:43.126Z,-8.93
2018-03-01T03:50:43.032Z,-8.97
2018-03-01T03:51:42.937Z,-9.10
2018-03-01T03:52:42.844Z,-9.07
2018-03-01T03:53:42.754Z,-9.02
2018-03-01T03:54:42.657Z,-9.04
2018-03-01T03:55:42.564Z,-9.02
2018-03-01T03:56:42.470Z,-9.02
2018-03-01T03:57:42.378Z,-9.02
2018-03-01T03:58:42.286Z,-9.04
2018-03-01T03:59:42.190Z,-9.00
2018-03-01T04:00:42.097Z,-9.00
2018-03-01T04:01:42.003Z,-9.06
2018-03-01T04:02:41.950Z,-9.21
2018-03-01T04:03:41.818Z,-9.15
2018-03-01T04:04:41.722Z,-9.14
2018-03-01T04:05:41.630Z,-9.11
2018-03-01T04:06:41.534Z,-9.18
2018-03-01T04:07:41.445Z,-9.21
2018-03-01T04:08:41.350Z,-9.21
2018-03-01T04:09:41.255Z,-9.21
2018-03-01T04:10:41.161Z,-9.17
2018-03-01T04:11:41.068Z,-9.20
2018-03-01T04:12:40.976Z,-9.18
2018-03-01T04:13:40.926Z,-9.21
2018-03-01T04:14:40.803Z,-9.22
2018-03-01T04:15:40.693Z,-9.20
2018-03-01T04:16:40.602Z,-9.18
2018-03-01T04:17:40.506Z,-9.25
2018-03-01T04:18:40.415Z,-9.22
2018-03-01T04:19:40.319Z,-9.32
2018-03-01T04:20:40.225Z,-9.32
2018-03-01T04:21:40.134Z,-9.32
2018-03-01T04:22:40.037Z,-9.31
2018-03-01T04:23:39.943Z,-9.32
2018-03-01T04:24:39.852Z,-9.28
2018-03-01T04:25:39.771Z,-9.20
2018-03-01T04:26:39.665Z,-9.22
2018-03-01T04:27:39.571Z,-9.20
2018-03-01T04:28:39.475Z,-9.18
2018-03-01T04:29:39.387Z,-9.17
2018-03-01T04:30:39.289Z,-9.22
2018-03-01T04:31:39.214Z,-9.18
2018-03-01T04:32:39.105Z,-9.21
2018-03-01T04:33:39.007Z,-9.03
2018-03-01T04:34:38.913Z,-9.06
2018-03-01T04:35:38.822Z,-9.10
2018-03-01T04:36:38.726Z,-9.15
2018-03-01T04:37:38.633Z,-9.10
2018-03-01T04:38:38.538Z,-9.12
2018-03-01T04:39:38.449Z,-9.07
2018-03-01T04:40:38.352Z,-9.21
2018-03-01T04:41:38.259Z,-9.25
2018-03-01T04:42:38.164Z,-9.18
2018-03-01T04:43:38.082Z,-9.21
2018-03-01T04:44:37.979Z,-9.07
2018-03-01T04:45:37.885Z,-9.21
2018-03-01T04:46:37.797Z,-9.21
2018-03-01T04:47:37.698Z,-9.20
2018-03-01T04:48:37.605Z,-9.21
2018-03-01T04:49:37.514Z,-9.24
2018-03-01T04:50:37.416Z,-9.21
2018-03-01T04:51:37.336Z,-9.20
2018-03-01T04:52:37.237Z,-9.21
2018-03-01T04:53:37.137Z,-9.21
2018-03-01T04:54:37.041Z,-9.20
2018-03-01T04:55:36.948Z,-9.15
2018-03-01T04:56:36.853Z,-9.11
2018-03-01T04:57:36.762Z,-9.20
2018-03-01T04:58:36.667Z,-9.18
2018-03-01T04:59:36.574Z,-9.18
2018-03-01T05:00:36.482Z,-9.21
2018-03-01T05:01:36.388Z,-9.11
2018-03-01T05:02:36.292Z,-9.14
2018-03-01T05:03:36.198Z,-9.14
2018-03-01T05:04:36.107Z,-9.20
2018-03-01T05:05:36.016Z,-9.21
2018-03-01T05:06:35.918Z,-9.18
2018-03-01T05:07:35.824Z,-9.25
2018-03-01T05:08:35.732Z,-9.22
2018-03-01T05:09:35.639Z,-9.25
2018-03-01T05:10:35.544Z,-9.32
2018-03-01T05:11:35.451Z,-9.32
2018-03-01T05:12:35.358Z,-9.29
2018-03-01T05:13:35.263Z,-9.20
2018-03-01T05:14:35.170Z,-9.17
2018-03-01T05:15:35.081Z,-9.22
2018-03-01T05:16:34.984Z,-9.22
2018-03-01T05:17:34.890Z,-9.22
2018-03-01T05:18:34.798Z,-9.11
2018-03-01T05:19:34.702Z,-9.21
2018-03-01T05:20:34.606Z,-9.15
2018-03-01T05:21:34.518Z,-9.25
2018-03-01T05:22:34.421Z,-9.20
2018-03-01T05:23:34.329Z,-9.24
2018-03-01T05:24:34.233Z,-9.29
2018-03-01T05:25:34.156Z,-9.22
2018-03-01T05:26:34.045Z,-9.24
2018-03-01T05:27:33.950Z,-9.31
2018-03-01T05:28:33.858Z,-9.33
2018-03-01T05:29:33.765Z,-9.22
2018-03-01T05:30:33.671Z,-9.28
2018-03-01T05:31:33.577Z,-9.28
2018-03-01T05:32:33.485Z,-9.31
2018-03-01T05:33:33.391Z,-9.29
2018-03-01T05:34:33.296Z,-9.29
2018-03-01T05:35:33.203Z,-9.22
2018-03-01T05:36:33.109Z,-9.32
2018-03-01T05:37:33.016Z,-9.29
2018-03-01T05:38:32.922Z,-9.22
2018-03-01T05:39:32.827Z,-9.17
2018-03-01T05:40:32.734Z,-9.22
2018-03-01T05:41:32.641Z,-9.22
2018-03-01T05:42:32.547Z,-9.24
2018-03-01T05:43:32.456Z,-9.15
2018-03-01T05:44:32.359Z,-9.21
2018-03-01T05:45:32.264Z,-9.24
2018-03-01T05:46:32.219Z,-9.20
2018-03-01T05:47:32.092Z,-9.21
2018-03-01T05:48:31.984Z,-9.18
2018-03-01T05:49:31.890Z,-9.22
2018-03-01T05:50:31.797Z,-9.29
2018-03-01T05:51:31.704Z,-9.22
2018-03-01T05:52:31.611Z,-9.24
2018-03-01T05:53:31.514Z,-9.20
2018-03-01T05:54:31.424Z,-9.18
2018-03-01T05:55:31.328Z,-9.12
2018-03-01T05:56:31.244Z,-9.20
2018-03-01T05:57:31.146Z,-9.18
2018-03-01T05:58:31.048Z,-9.15
2018-03-01T05:59:30.953Z,-9.22
2018-03-01T06:00:30.860Z,-9.15
2018-03-01T06:01:30.765Z,-9.17
2018-03-01T06:02:30.673Z,-9.14
2018-03-01T06:03:30.577Z,-9.17
2018-03-01T06:04:30.497Z,-9.21
2018-03-01T06:05:30.392Z,-9.22
2018-03-01T06:06:30.300Z,-9.22
2018-03-01T06:07:30.206Z,-9.18
2018-03-01T06:08:30.111Z,-9.21
2018-03-01T06:09:30.037Z,-9.22
2018-03-01T06:10:29.980Z,-9.15
2018-03-01T06:11:29.832Z,-9.20
2018-03-01T06:12:29.737Z,-9.22
2018-03-01T06:13:29.641Z,-9.17
2018-03-01T06:14:29.549Z,-9.17
2018-03-01T06:15:29.457Z,-9.17
2018-03-01T06:16:29.360Z,-9.22
2018-03-01T06:17:29.267Z,-9.22
2018-03-01T06:18:29.173Z,-9.14
2018-03-01T06:19:29.083Z,-9.20
2018-03-01T06:20:28.991Z,-9.15
2018-03-01T06:21:28.894Z,-9.20
2018-03-01T06:22:28.861Z,-9.24
2018-03-01T06:23:28.721Z,-9.18
2018-03-01T06:24:28.611Z,-9.24
2018-03-01T06:25:28.520Z,-9.21
2018-03-01T06:26:28.427Z,-9.17
2018-03-01T06:27:28.334Z,-9.06
2018-03-01T06:28:28.253Z,-9.00
2018-03-01T06:29:28.143Z,-9.10
2018-03-01T06:30:28.050Z,-9.02
2018-03-01T06:31:27.958Z,-8.97
2018-03-01T06:32:27.872Z,-8.92
2018-03-01T06:33:27.774Z,-9.02
2018-03-01T06:34:27.686Z,-8.90
2018-03-01T06:35:27.585Z,-8.93
2018-03-01T06:36:27.489Z,-8.81
2018-03-01T06:37:27.400Z,-8.83
2018-03-01T06:38:27.304Z,-8.79
2018-03-01T06:39:27.214Z,-8.70
2018-03-01T06:40:27.116Z,-8.79
2018-03-01T06:41:27.022Z,-8.68
2018-03-01T06:42:26.929Z,-8.78
2018-03-01T06:43:26.835Z,-8.75
2018-03-01T06:44:26.742Z,-8.70
2018-03-01T06:45:26.648Z,-8.78
2018-03-01T06:46:26.558Z,-8.76
2018-03-01T06:47:26.465Z,-8.78
2018-03-01T06:48:26.382Z,-8.75
2018-03-01T06:49:26.281Z,-8.78
2018-03-01T06:50:26.182Z,-8.81
2018-03-01T06:51:26.088Z,-8.72
2018-03-01T06:52:25.996Z,-8.72
2018-03-01T06:53:25.904Z,-8.68
2018-03-01T06:54:25.813Z,-8.72
2018-03-01T06:55:25.715Z,-8.72
2018-03-01T06:56:25.623Z,-8.65
2018-03-01T06:57:25.530Z,-8.67
2018-03-01T06:58:25.436Z,-8.62
2018-03-01T06:59:25.370Z,-8.76
2018-03-01T07:00:25.264Z,-8.70
2018-03-01T07:01:25.158Z,-8.61
2018-03-01T07:02:25.063Z,-8.61
2018-03-01T07:03:24.971Z,-8.65
2018-03-01T07:04:24.877Z,-8.58
2018-03-01T07:05:24.783Z,-8.58
2018-03-01T07:06:24.725Z,-8.62
2018-03-01T07:07:24.598Z,-8.54
2018-03-01T07:08:24.507Z,-8.50
2018-03-01T07:09:24.414Z,-8.50
2018-03-01T07:10:24.319Z,-8.50
2018-03-01T07:11:24.229Z,-8.58
2018-03-01T07:12:24.133Z,-8.50
2018-03-01T07:13:24.038Z,-8.46
2018-03-01T07:14:23.946Z,-8.43
2018-03-01T07:15:23.852Z,-8.32
2018-03-01T07:16:23.761Z,-8.39
2018-03-01T07:17:23.664Z,-8.37
2018-03-01T07:18:23.587Z,-8.32
2018-03-01T07:19:23.481Z,-8.34
2018-03-01T07:20:23.389Z,-8.34
2018-03-01T07:21:23.294Z,-8.23
2018-03-01T07:22:23.211Z,-8.21
2018-03-01T07:23:23.111Z,-8.16
2018-03-01T07:24:23.016Z,-8.13
2018-03-01T07:25:22.921Z,-8.13
2018-03-01T07:26:22.832Z,-8.07
2018-03-01T07:27:22.742Z,-8.18
2018-03-01T07:28:22.658Z,-8.13
2018-03-01T07:29:22.549Z,-8.19
2018-03-01T07:30:22.457Z,-8.16
2018-03-01T07:31:22.364Z,-8.15
2018-03-01T07:32:22.273Z,-8.13
2018-03-01T07:33:22.180Z,-8.10
2018-03-01T07:34:22.085Z,-8.08
2018-03-01T07:35:22.010Z,-8.05
2018-03-01T07:36:21.901Z,-8.01
2018-03-01T07:37:21.812Z,-8.03
2018-03-01T07:38:21.718Z,-7.96
2018-03-01T07:39:21.624Z,-7.99
2018-03-01T07:40:21.528Z,-7.89
2018-03-01T07:41:21.438Z,-7.83
2018-03-01T07:42:21.346Z,-7.81
2018-03-01T07:43:21.252Z,-7.85
2018-03-01T07:44:21.171Z,-7.88
2018-03-01T07:45:21.064Z,-7.74
2018-03-01T07:46:20.972Z,-7.78
2018-03-01T07:47:20.880Z,-7.71
2018-03-01T07:48:20.786Z,-7.72
2018-03-01T07:49:20.695Z,-7.75
2018-03-01T07:50:20.604Z,-7.74
2018-03-01T07:51:20.530Z,-7.75
2018-03-01T07:52:20.417Z,-7.83
2018-03-01T07:53:20.331Z,-7.74
2018-03-01T07:54:20.232Z,-7.70
2018-03-01T07:55:20.138Z,-7.65
2018-03-01T07:56:20.105Z,-7.72
2018-03-01T07:57:19.962Z,-7.56
2018-03-01T07:58:19.860Z,-7.58
2018-03-01T07:59:19.770Z,-7.56
2018-03-01T08:00:19.676Z,-7.60
2018-03-01T08:01:19.589Z,-7.52
2018-03-01T08:02:19.492Z,-7.46
2018-03-01T08:03:19.401Z,-7.40
2018-03-01T08:04:19.347Z,-7.29
2018-03-01T08:05:19.213Z,-7.31
2018-03-01T08:06:19.123Z,-7.14
2018-03-01T08:07:19.031Z,-7.29
2018-03-01T08:08:18.939Z,-7.26
2018-03-01T08:09:18.859Z,-7.18
2018-03-01T08:10:18.754Z,-7.15
2018-03-01T08:11:18.679Z,-7.18
2018-03-01T08:12:18.568Z,-7.14
2018-03-01T08:13:18.500Z,-7.11
2018-03-01T08:14:18.385Z,-7.11
2018-03-01T08:15:18.292Z,-7.17
2018-03-01T08:16:18.200Z,-7.17
2018-03-01T08:17:18.122Z,-7.15
2018-03-01T08:18:18.015Z,-7.22
2018-03-01T08:19:17.928Z,-7.28
2018-03-01T08:20:17.836Z,-7.18
2018-03-01T08:21:17.738Z,-7.14
2018-03-01T08:22:17.651Z,-7.07
2018-03-01T08:23:17.556Z,-7.08
2018-03-01T08:24:17.463Z,-7.05
2018-03-01T08:25:17.395Z,-7.07
2018-03-01T08:26:17.280Z,-7.03
2018-03-01T08:27:17.186Z,-7.04
2018-03-01T08:28:17.096Z,-6.94
2018-03-01T08:29:17.004Z,-6.90
2018-03-01T08:30:16.915Z,-6.83
2018-03-01T08:31:16.818Z,-6.74
2018-03-01T08:32:16.729Z,-6.71
2018-03-01T08:33:16.634Z,-6.66
2018-03-01T08:34:16.546Z,-6.58
2018-03-01T08:35:16.451Z,-6.63
2018-03-01T08:36:16.360Z,-6.53
2018-03-01T08:37:16.269Z,-6.50
2018-03-01T08:38:16.175Z,-6.42
2018-03-01T08:39:16.084Z,-6.56
2018-03-01T08:40:15.990Z,-6.46
2018-03-01T08:41:15.901Z,-6.49
2018-03-01T08:42:15.809Z,-6.31
2018-03-01T08:43:15.722Z,-6.31
2018-03-01T08:44:15.626Z,-6.41
2018-03-01T08:45:15.532Z,-6.31
2018-03-01T08:46:15.444Z,-6.26
2018-03-01T08:47:15.352Z,-6.32
2018-03-01T08:48:15.262Z,-6.21
2018-03-01T08:49:15.166Z,-6.21
2018-03-01T08:50:15.083Z,-6.23
2018-03-01T08:51:14.985Z,-6.29
2018-03-01T08:52:14.905Z,-6.26
2018-03-01T08:53:14.802Z,-6.38
2018-03-01T08:54:14.711Z,-6.34
2018-03-01T08:55:14.630Z,-6.36
2018-03-01T08:56:14.526Z,-6.32
2018-03-01T08:57:14.434Z,-6.24
2018-03-01T08:58:14.343Z,-6.21
2018-03-01T08:59:14.255Z,-6.24
2018-03-01T09:00:14.160Z,-6.24
2018-03-01T09:01:14.070Z,-6.31
2018-03-01T09:02:13.976Z,-6.20
2018-03-01T09:03:13.889Z,-6.24
2018-03-01T09:04:13.798Z,-6.29
2018-03-01T09:05:13.711Z,-6.18
2018-03-01T09:06:13.612Z,-6.17
2018-03-01T09:07:13.528Z,-6.13
2018-03-01T09:08:13.431Z,-6.20
2018-03-01T09:09:13.337Z,-6.21
2018-03-01T09:10:13.249Z,-6.20
2018-03-01T09:11:13.155Z,-6.21
2018-03-01T09:12:13.065Z,-6.21
2018-03-01T09:13:12.971Z,-6.15
2018-03-01T09:14:12.881Z,-6.13
2018-03-01T09:15:12.789Z,-6.00
2018-03-01T09:16:12.700Z,-6.00
2018-03-01T09:17:12.614Z,-5.96
2018-03-01T09:18:12.516Z,-5.96
2018-03-01T09:19:12.424Z,-5.90
2018-03-01T09:20:12.334Z,-5.72
2018-03-01T09:21:12.241Z,-5.76
2018-03-01T09:22:12.149Z,-5.75
2018-03-01T09:23:12.059Z,-5.66
2018-03-01T09:24:11.971Z,-5.71
2018-03-01T09:25:11.875Z,-5.71
2018-03-01T09:26:11.785Z,-5.67
2018-03-01T09:27:11.694Z,-5.57
2018-03-01T09:28:11.602Z,-5.56
2018-03-01T09:29:11.518Z,-5.49
2018-03-01T09:30:11.425Z,-5.58
2018-03-01T09:31:11.330Z,-5.45
2018-03-01T09:32:11.238Z,-5.45
2018-03-01T09:33:11.146Z,-5.42
2018-03-01T09:34:11.055Z,-5.42
2018-03-01T09:35:10.965Z,-5.38
2018-03-01T09:36:10.877Z,-5.36
2018-03-01T09:37:10.837Z,-5.43
2018-03-01T09:38:10.696Z,-5.38
2018-03-01T09:39:10.601Z,-5.28
2018-03-01T09:40:10.513Z,-5.31
2018-03-01T09:41:10.420Z,-5.27
2018-03-01T09:42:10.327Z,-5.28
2018-03-01T09:43:10.239Z,-5.21
2018-03-01T09:44:10.170Z,-5.35
2018-03-01T09:45:10.054Z,-5.24
2018-03-01T09:46:09.965Z,-5.22
2018-03-01T09:47:09.873Z,-5.19
2018-03-01T09:48:09.786Z,-5.24
2018-03-01T09:49:09.690Z,-5.14
2018-03-01T09:50:09.603Z,-5.21
2018-03-01T09:51:09.511Z,-5.09
2018-03-01T09:52:09.420Z,-4.96
2018-03-01T09:53:09.327Z,-4.98
2018-03-01T09:54:09.241Z,-5.02
2018-03-01T09:55:09.253Z,-4.98
2018-03-01T09:56:09.158Z,-4.99
2018-03-01T09:57:08.967Z,-4.84
2018-03-01T09:58:08.875Z,-4.79
2018-03-01T09:59:08.787Z,-4.67
2018-03-01T10:01:51.275Z,-4.63
2018-03-01T10:02:51.136Z,-4.73
2018-03-01T10:03:51.092Z,-4.57
2018-03-01T10:04:50.956Z,-4.69
2018-03-01T10:05:50.865Z,-4.69
2018-03-01T10:06:50.774Z,-4.60
2018-03-01T10:07:50.684Z,-4.59
2018-03-01T10:08:50.594Z,-4.57
2018-03-01T10:09:50.502Z,-4.59
2018-03-01T10:10:50.418Z,-4.42
2018-03-01T10:11:50.334Z,-4.42
2018-03-01T10:12:50.295Z,-4.34
2018-03-01T10:13:50.143Z,-4.28
2018-03-01T10:14:50.054Z,-4.07
2018-03-01T10:15:49.963Z,-4.12
2018-03-01T10:16:49.872Z,-3.99
2018-03-01T10:17:49.784Z,-3.95
2018-03-01T10:18:49.691Z,-3.95
2018-03-01T10:19:49.602Z,-4.04
2018-03-01T10:20:49.518Z,-3.92
2018-03-01T10:21:49.421Z,-4.03
2018-03-01T10:22:49.334Z,-4.03
2018-03-01T10:23:49.245Z,-3.93
2018-03-01T10:24:49.152Z,-3.88
2018-03-01T10:25:49.061Z,-3.82
2018-03-01T10:26:48.979Z,-3.82
2018-03-01T10:27:48.886Z,-3.80
2018-03-01T10:28:48.791Z,-3.69
2018-03-01T10:29:48.715Z,-3.74
2018-03-01T10:30:48.643Z,-3.69
2018-03-01T10:31:48.523Z,-3.72
2018-03-01T10:32:48.432Z,-3.69
2018-03-01T10:33:48.346Z,-3.56
2018-03-01T10:34:48.251Z,-3.59
2018-03-01T10:35:48.165Z,-3.56
2018-03-01T10:36:48.077Z,-3.54
2018-03-01T10:37:47.985Z,-3.55
2018-03-01T10:38:47.896Z,-3.41
2018-03-01T10:39:47.806Z,-3.41
2018-03-01T10:40:47.718Z,-3.41
2018-03-01T10:41:47.635Z,-3.37
2018-03-01T10:42:47.539Z,-3.25
2018-03-01T10:43:47.451Z,-3.25
2018-03-01T10:44:47.361Z,-3.15
2018-03-01T10:45:47.269Z,-3.15
2018-03-01T10:46:47.184Z,-3.28
2018-03-01T10:47:47.093Z,-3.17
2018-03-01T10:48:47.002Z,-3.10
2018-03-01T10:49:46.915Z,-3.10
2018-03-01T10:50:46.870Z,-2.99
2018-03-01T10:51:46.735Z,-2.94
2018-03-01T10:52:46.653Z,-2.86
2018-03-01T10:53:46.574Z,-2.70
2018-03-01T10:54:46.468Z,-2.73
2018-03-01T10:55:46.380Z,-2.66
2018-03-01T10:56:46.336Z,-2.69
2018-03-01T10:57:46.201Z,-2.69
2018-03-01T10:58:46.112Z,-2.66
2018-03-01T10:59:46.026Z,-2.41
2018-03-01T11:00:45.935Z,-2.45
2018-03-01T11:01:45.853Z,-2.40
2018-03-01T11:02:45.759Z,-2.53
2018-03-01T11:03:45.670Z,-2.41
2018-03-01T11:04:45.585Z,-2.45
2018-03-01T11:05:45.491Z,-2.35
2018-03-01T11:06:45.405Z,-2.21
2018-03-01T11:07:45.322Z,-2.18
2018-03-01T11:08:45.231Z,-2.07
2018-03-01T11:09:45.138Z,-2.01
2018-03-01T11:10:46.263Z,-1.94
2018-03-01T11:11:44.962Z,-1.95
2018-03-01T11:12:44.879Z,-1.72
2018-03-01T11:13:44.785Z,-1.62
2018-03-01T11:14:44.701Z,-1.33
2018-03-01T11:15:44.610Z,-0.99
2018-03-01T11:16:44.525Z,-0.56
2018-03-01T11:17:44.448Z,-0.13
2018-03-01T11:18:44.354Z,0.44
2018-03-01T11:19:44.268Z,1.23
2018-03-01T11:20:44.186Z,1.74
2018-03-01T11:21:44.095Z,2.29
2018-03-01T11:22:44.010Z,2.42
2018-03-01T11:23:43.927Z,2.61
2018-03-01T11:24:43.844Z,3.28
2018-03-01T11:25:43.787Z,3.41
2018-03-01T11:26:43.678Z,3.78
2018-03-01T11:27:43.598Z,4.32
2018-03-01T11:28:43.514Z,4.37
2018-03-01T11:29:43.433Z,4.63
2018-03-01T11:30:43.363Z,4.86
2018-03-01T11:31:43.273Z,4.93
2018-03-01T11:32:43.192Z,5.30
2018-03-01T11:33:43.110Z,5.33
2018-03-01T11:34:43.053Z,5.44
2018-03-01T11:35:42.953Z,5.80
2018-03-01T11:36:42.872Z,5.69
2018-03-01T11:37:42.793Z,6.16
2018-03-01T11:38:42.714Z,6.11
2018-03-01T11:39:42.635Z,5.86
2018-03-01T11:40:42.556Z,5.26
2018-03-01T11:41:42.477Z,4.62
2018-03-01T11:42:42.400Z,4.31
2018-03-01T11:43:42.321Z,3.88
2018-03-01T11:44:42.244Z,4.17
2018-03-01T11:45:42.172Z,5.38
2018-03-01T11:46:42.085Z,5.56
2018-03-01T11:47:42.012Z,5.93
2018-03-01T11:48:41.933Z,6.60
2018-03-01T11:49:41.851Z,6.62
2018-03-01T11:50:41.773Z,6.52
2018-03-01T11:51:41.696Z,6.11
2018-03-01T11:52:41.622Z,6.08
2018-03-01T11:53:41.544Z,6.36
2018-03-01T11:54:41.462Z,6.67
2018-03-01T11:55:41.387Z,7.72
2018-03-01T11:56:41.310Z,8.19
2018-03-01T11:57:41.246Z,8.76
2018-03-01T11:58:41.155Z,8.24
2018-03-01T11:59:41.079Z,8.13
2018-03-01T12:00:41.008Z,7.97
2018-03-01T12:01:40.931Z,7.31
2018-03-01T12:02:40.855Z,7.47
2018-03-01T12:03:40.776Z,7.54
2018-03-01T12:04:40.708Z,8.28
2018-03-01T12:05:40.627Z,8.88
2018-03-01T12:06:40.556Z,9.06
2018-03-01T12:07:40.478Z,9.04
2018-03-01T12:08:40.407Z,9.18
2018-03-01T12:09:40.343Z,9.03
2018-03-01T12:10:40.303Z,9.13
2018-03-01T12:11:40.180Z,9.14
2018-03-01T12:12:40.106Z,9.08
2018-03-01T12:13:40.033Z,8.69
2018-03-01T12:14:39.957Z,8.18
2018-03-01T12:15:39.927Z,7.42
2018-03-01T12:16:39.864Z,6.84
2018-03-01T12:17:39.735Z,6.63
2018-03-01T12:18:39.660Z,6.20
2018-03-01T12:19:39.589Z,5.66
2018-03-01T12:20:39.511Z,5.28
2018-03-01T12:21:39.437Z,5.26
2018-03-01T12:22:39.358Z,4.84
2018-03-01T12:23:39.286Z,4.84
2018-03-01T12:24:39.213Z,4.78
2018-03-01T12:25:39.136Z,4.63
2018-03-01T12:26:39.058Z,3.99
2018-03-01T12:27:38.983Z,3.70
2018-03-01T12:28:38.905Z,3.62
2018-03-01T12:29:38.854Z,3.62
2018-03-01T12:30:38.822Z,4.38
2018-03-01T12:31:38.678Z,4.52
2018-03-01T12:32:38.598Z,5.17
2018-03-01T12:33:38.521Z,5.65
2018-03-01T12:34:38.481Z,5.11
2018-03-01T12:35:38.365Z,4.58
2018-03-01T12:36:38.291Z,4.17
2018-03-01T12:37:38.222Z,3.94
2018-03-01T12:38:38.133Z,3.44
2018-03-01T12:39:38.056Z,3.16
2018-03-01T12:40:37.977Z,2.74
2018-03-01T12:41:37.897Z,2.51
2018-03-01T12:42:37.817Z,2.35
2018-03-01T12:43:37.740Z,2.00
2018-03-01T12:44:37.662Z,1.71
2018-03-01T12:45:37.582Z,1.62
2018-03-01T12:46:37.502Z,1.53
2018-03-01T12:47:37.427Z,1.44
2018-03-01T12:48:37.356Z,1.49
2018-03-01T12:49:37.262Z,1.49
2018-03-01T12:50:37.182Z,1.56
2018-03-01T12:51:37.101Z,1.85
2018-03-01T12:52:37.020Z,1.63
2018-03-01T12:53:36.948Z,1.62
2018-03-01T12:54:36.870Z,1.76
2018-03-01T12:55:36.778Z,1.78